Time;durP1;ratioP1;P1;durP2;ratioP2;P2;SDS_P1;SDS_P2;PMS_P1;PMS_P2;Temp;Humidity;BMP_temperature;BMP_pressure;BME280_temperature;BME280_humidity;BME280_pressure;Samples;Min_cycle;Max_cycle;Signal;HPM_P1;HPM_P2
2022/08/12 00:44:53;;;;;;;8.25;6.42;;;;;;;20.76;100.00;99893.30;1723620;82;21043;-66
2022/08/12 00:47:20;;;;;;;10.18;6.28;;;;;;;20.75;100.00;99886.95;1734372;82;21030;-66
2022/08/12 00:49:48;;;;;;;10.75;6.35;;;;;;;20.77;100.00;99893.52;1721617;82;21565;-66
2022/08/12 00:52:17;;;;;;;10.72;6.83;;;;;;;20.73;100.00;99892.56;1699101;82;21000;-66
2022/08/12 00:54:57;;;;;;;9.68;6.37;;;;;;;20.68;100.00;99888.05;1733505;82;21507;-66
2022/08/12 00:57:29;;;;;;;10.68;6.67;;;;;;;20.69;100.00;99894.41;1731709;82;21012;-65
2022/08/12 01:00:03;;;;;;;10.65;6.50;;;;;;;20.70;100.00;99900.15;1717685;82;21039;-65
2022/08/12 01:02:33;;;;;;;12.03;6.75;;;;;;;20.72;100.00;99900.64;1726403;82;21055;-65
2022/08/12 01:13:31;;;;;;;9.60;6.30;;;;;;;20.59;100.00;99908.59;1729837;82;21027;-65
2022/08/12 01:16:01;;;;;;;7.62;6.60;;;;;;;20.58;100.00;99918.84;1725361;82;21044;-65
2022/08/12 01:18:32;;;;;;;7.47;6.62;;;;;;;20.58;100.00;99923.59;1730907;82;21031;-66
2022/08/12 01:21:47;;;;;;;8.43;6.33;;;;;;;20.60;100.00;99929.02;1725543;82;21115;-66
2022/08/12 01:24:55;;;;;;;10.65;6.60;;;;;;;20.62;100.00;99931.42;1735903;82;21051;-68
2022/08/12 01:27:22;;;;;;;7.12;5.97;;;;;;;20.65;100.00;99931.57;1680897;85;21047;-68
2022/08/12 01:29:52;;;;;;;10.30;6.50;;;;;;;20.65;100.00;99926.64;1674352;84;21062;-67
2022/08/12 01:32:20;;;;;;;9.63;6.05;;;;;;;20.66;100.00;99915.79;1658245;85;21023;-66
2022/08/12 01:35:07;;;;;;;7.83;5.97;;;;;;;20.62;100.00;99916.22;1667607;84;21052;-66
2022/08/12 01:37:41;;;;;;;7.85;6.15;;;;;;;20.64;100.00;99913.94;1734192;81;20980;-67
2022/08/12 01:40:08;;;;;;;9.73;6.75;;;;;;;20.68;100.00;99914.33;1718245;82;21541;-67
2022/08/12 01:42:49;;;;;;;8.60;6.12;;;;;;;20.67;100.00;99911.89;1726785;82;21487;-66
2022/08/12 01:46:36;;;;;;;9.23;6.10;;;;;;;20.68;100.00;99903.84;1790580;79;22780;-66
2022/08/12 01:49:28;;;;;;;6.65;5.92;;;;;;;20.63;100.00;99911.75;1737620;82;21577;-68
2022/08/12 01:52:05;;;;;;;8.60;7.05;;;;;;;20.63;100.00;99915.89;1740840;82;21114;-67
2022/08/12 01:54:40;;;;;;;7.12;6.42;;;;;;;20.58;100.00;99909.76;1744864;82;21082;-67
2022/08/12 01:57:24;;;;;;;8.80;6.17;;;;;;;20.60;100.00;99917.13;1736670;82;21090;-66
2022/08/12 01:59:58;;;;;;;8.93;6.35;;;;;;;20.58;100.00;99910.54;1733442;81;21074;-66
2022/08/12 02:02:55;;;;;;;8.93;6.10;;;;;;;20.59;100.00;99905.82;1728684;82;20979;-66
2022/08/12 02:12:06;;;;;;;7.85;6.45;;;;;;;20.49;100.00;99912.55;1712189;84;22128;-66
2022/08/12 02:14:56;;;;;;;8.53;6.17;;;;;;;20.49;100.00;99906.21;1650433;86;21054;-66
2022/08/12 02:17:46;;;;;;;9.83;6.55;;;;;;;20.43;100.00;99907.55;1746602;80;21545;-67
2022/08/12 02:20:32;;;;;;;7.17;5.70;;;;;;;20.42;100.00;99911.45;1745457;80;21095;-66
2022/08/12 02:22:59;;;;;;;7.80;6.15;;;;;;;20.41;100.00;99910.63;1743095;80;21021;-66
2022/08/12 02:25:36;;;;;;;6.42;5.40;;;;;;;20.40;100.00;99906.84;1744889;80;21073;-66
2022/08/12 02:28:03;;;;;;;7.95;6.25;;;;;;;20.40;100.00;99909.60;1753342;81;21541;-66
2022/08/12 02:30:31;;;;;;;8.13;6.78;;;;;;;20.40;100.00;99901.31;1751261;80;21212;-66
2022/08/12 02:33:00;;;;;;;7.33;6.22;;;;;;;20.40;100.00;99901.31;1750410;82;21052;-66
2022/08/12 02:35:28;;;;;;;9.68;6.37;;;;;;;20.35;100.00;99901.73;1746083;80;21094;-66
2022/08/12 02:37:58;;;;;;;8.03;5.95;;;;;;;20.29;100.00;99889.25;1714400;82;21583;-66
2022/08/12 02:40:26;;;;;;;8.80;5.92;;;;;;;20.31;100.00;99901.34;1702475;84;21057;-66
2022/08/12 02:43:16;;;;;;;7.53;5.90;;;;;;;20.30;100.00;99903.28;1717726;82;21578;-66
2022/08/12 02:46:05;;;;;;;8.70;6.28;;;;;;;20.27;100.00;99902.57;1716469;82;21106;-66
2022/08/12 02:48:40;;;;;;;6.67;5.75;;;;;;;20.26;100.00;99896.76;1713586;82;21050;-66
2022/08/12 02:51:09;;;;;;;8.10;6.05;;;;;;;20.28;100.00;99899.23;1711161;82;21054;-66
2022/08/12 02:53:37;;;;;;;7.40;5.95;;;;;;;20.27;100.00;99897.05;1726797;82;21101;-66
2022/08/12 02:56:04;;;;;;;7.35;5.90;;;;;;;20.28;100.00;99891.77;1729460;81;21026;-66
2022/08/12 02:58:34;;;;;;;9.23;6.10;;;;;;;20.23;100.00;99884.99;1713552;82;21112;-66
2022/08/12 03:01:04;;;;;;;6.28;5.67;;;;;;;20.24;100.00;99886.63;1689820;84;21544;-67
2022/08/12 03:03:33;;;;;;;7.12;6.30;;;;;;;20.25;100.00;99891.58;1708167;82;22072;-66
2022/08/12 03:06:15;;;;;;;7.10;5.80;;;;;;;20.22;100.00;99888.92;1699425;83;21034;-67
2022/08/12 03:08:42;;;;;;;8.58;5.70;;;;;;;20.22;100.00;99890.30;1668510;84;21102;-65
2022/08/12 03:11:28;;;;;;;6.97;6.28;;;;;;;20.24;100.00;99887.19;1744420;82;21682;-67
2022/08/12 03:13:57;;;;;;;8.90;6.08;;;;;;;20.21;100.00;99888.67;1713310;82;21015;-67
2022/08/12 03:16:26;;;;;;;9.28;6.25;;;;;;;20.20;100.00;99887.61;1739317;81;21054;-66
2022/08/12 03:18:53;;;;;;;9.03;6.50;;;;;;;20.25;100.00;99886.87;1742905;81;21077;-66
2022/08/12 03:21:20;;;;;;;9.43;6.10;;;;;;;20.24;100.00;99881.66;1745129;81;21642;-66
2022/08/12 03:23:47;;;;;;;8.28;5.97;;;;;;;20.25;100.00;99886.87;1737786;81;21078;-66
2022/08/12 03:26:14;;;;;;;10.13;6.45;;;;;;;20.28;100.00;99882.09;1746364;80;21059;-67
2022/08/12 03:28:50;;;;;;;10.88;6.83;;;;;;;20.30;100.00;99884.50;1731877;81;21528;-66
2022/08/12 03:31:28;;;;;;;7.60;5.90;;;;;;;20.31;100.00;99876.45;1700833;83;21572;-66
2022/08/12 03:33:57;;;;;;;9.00;6.62;;;;;;;20.41;100.00;99887.13;1696094;84;21033;-67
2022/08/12 03:36:23;;;;;;;8.43;5.92;;;;;;;20.41;100.00;99895.42;1699856;83;21062;-67
2022/08/12 03:39:20;;;;;;;8.03;5.87;;;;;;;20.44;100.00;99890.61;1718133;83;21086;-67
2022/08/12 03:41:39;;;;;;;7.60;5.87;;;;;;;20.51;100.00;99884.58;1737398;81;21025;-67
2022/08/12 04:01:24;;;;;;;9.23;6.05;;;;;;;20.88;100.00;99880.09;1743467;81;21064;-65
2022/08/12 04:03:51;;;;;;;12.28;6.08;;;;;;;21.01;100.00;99892.28;1730422;81;21038;-68
2022/08/12 04:06:28;;;;;;;8.38;6.10;;;;;;;21.11;100.00;99888.35;1740463;81;21066;-67
2022/08/12 04:08:56;;;;;;;7.55;5.80;;;;;;;21.23;100.00;99899.47;1744317;81;21612;-65
2022/08/12 04:14:19;;;;;;;7.22;6.03;;;;;;;21.39;100.00;99906.03;1749308;81;21006;-68
2022/08/12 04:16:41;;;;;;;7.28;5.53;;;;;;;21.46;100.00;99905.48;1736699;81;21911;-67
2022/08/12 04:19:08;;;;;;;8.83;6.28;;;;;;;21.53;100.00;99902.97;1749643;81;21044;-68
2022/08/12 04:21:35;;;;;;;8.68;6.28;;;;;;;21.57;100.00;99898.37;1760919;80;21018;-68
2022/08/12 04:24:01;;;;;;;7.47;5.58;;;;;;;21.65;100.00;99905.19;1741280;81;20997;-68
2022/08/12 04:26:28;;;;;;;9.48;5.60;;;;;;;21.69;100.00;99897.82;1748481;80;21569;-67
2022/08/12 04:28:55;;;;;;;7.62;5.67;;;;;;;21.72;100.00;99906.02;1746016;82;21097;-68
2022/08/12 04:31:38;;;;;;;7.50;5.60;;;;;;;21.73;100.00;99909.84;1734860;81;21061;-68
2022/08/12 04:34:06;;;;;;;12.50;6.10;;;;;;;21.88;100.00;99900.08;1742471;81;21003;-68
2022/08/12 04:36:33;;;;;;;8.35;6.30;;;;;;;22.03;100.00;99906.38;1742433;80;21029;-68
2022/08/12 04:39:01;;;;;;;9.68;6.03;;;;;;;22.12;100.00;99903.49;1739954;82;21507;-69
2022/08/12 04:41:27;;;;;;;10.15;5.50;;;;;;;22.18;100.00;99896.56;1737261;81;21011;-69
2022/08/12 04:43:54;;;;;;;8.28;6.00;;;;;;;22.25;100.00;99894.03;1738225;81;20971;-68
2022/08/12 04:46:21;;;;;;;9.35;6.50;;;;;;;22.24;100.00;99902.13;1746631;81;21070;-68
2022/08/12 04:48:47;;;;;;;7.47;6.08;;;;;;;22.20;100.00;99892.88;1730444;81;21018;-68
2022/08/12 04:51:14;;;;;;;7.53;6.05;;;;;;;22.14;100.00;99883.19;1775674;80;21449;-68
2022/08/12 04:53:41;;;;;;;7.58;6.15;;;;;;;22.05;100.00;99887.43;1740750;81;21065;-67
2022/08/12 04:56:08;;;;;;;10.63;6.15;;;;;;;21.92;100.00;99896.08;1738505;81;21574;-68
2022/08/12 04:58:35;;;;;;;9.65;6.25;;;;;;;21.82;100.00;99892.54;1738422;82;21098;-67
2022/08/12 05:01:01;;;;;;;7.03;6.33;;;;;;;21.79;100.00;99901.54;1738381;81;21082;-67
2022/08/12 05:03:28;;;;;;;9.73;6.50;;;;;;;21.76;100.00;99906.38;1741881;81;21565;-68
2022/08/12 05:05:57;;;;;;;8.75;6.70;;;;;;;21.74;100.00;99907.89;1738887;81;21024;-68
2022/08/12 05:08:25;;;;;;;9.35;6.37;;;;;;;21.75;100.00;99905.36;1738698;82;21060;-65
2022/08/12 05:10:51;;;;;;;7.78;6.15;;;;;;;21.76;100.00;99909.73;1736844;81;21068;-66
2022/08/12 05:13:20;;;;;;;9.33;6.92;;;;;;;21.82;100.00;99909.77;1703698;84;21045;-65
2022/08/12 05:15:46;;;;;;;9.83;6.78;;;;;;;21.82;100.00;99900.07;1703819;82;21018;-64
2022/08/12 05:18:13;;;;;;;9.33;6.45;;;;;;;21.81;100.00;99910.91;1696166;84;21109;-65
2022/08/12 05:20:42;;;;;;;6.60;5.92;;;;;;;21.86;100.00;99908.51;1706202;82;21101;-64
2022/08/12 05:23:11;;;;;;;7.72;6.85;;;;;;;21.89;100.00;99899.50;1733911;82;21003;-66
2022/08/12 05:25:39;;;;;;;10.53;6.78;;;;;;;21.86;100.00;99896.82;1743755;81;21047;-66
2022/08/12 05:28:05;;;;;;;7.03;6.10;;;;;;;21.84;100.00;99892.20;1744116;82;20976;-67
2022/08/12 05:30:33;;;;;;;10.03;6.62;;;;;;;21.87;100.00;99884.59;1740661;81;21023;-66
2022/08/12 05:33:04;;;;;;;7.55;6.30;;;;;;;21.92;100.00;99887.76;1738725;82;21483;-67
2022/08/12 05:35:38;;;;;;;10.00;5.72;;;;;;;22.06;100.00;99893.79;1738367;82;21016;-67
2022/08/12 05:40:40;;;;;;;8.68;6.42;;;;;;;22.32;100.00;99881.21;1684088;82;21075;-65
2022/08/12 05:43:07;;;;;;;10.03;6.28;;;;;;;22.42;100.00;99877.77;1709041;84;21030;-65
2022/08/12 05:45:34;;;;;;;7.55;6.10;;;;;;;22.77;100.00;99861.69;1708819;83;21566;-65
2022/08/12 05:48:01;;;;;;;9.80;6.30;;;;;;;22.77;100.00;99861.69;1709058;84;21545;-66
2022/08/12 05:50:27;;;;;;;8.85;6.03;;;;;;;22.78;100.00;99861.09;1725242;81;21065;-66
2022/08/12 05:52:54;;;;;;;11.28;6.58;;;;;;;22.84;100.00;99869.42;1741018;82;21523;-67
2022/08/12 05:55:21;;;;;;;8.15;6.37;;;;;;;22.79;100.00;99876.59;1740705;81;21099;-65
2022/08/12 05:57:54;;;;;;;11.00;6.37;;;;;;;22.71;100.00;99877.52;1740575;82;21550;-66
2022/08/12 06:00:24;;;;;;;10.68;6.37;;;;;;;22.75;100.00;99870.93;1734349;81;21106;-66
2022/08/12 06:02:55;;;;;;;11.83;6.62;;;;;;;22.90;100.00;99864.42;1728340;83;21070;-66
2022/08/12 06:05:22;;;;;;;7.62;6.70;;;;;;;23.08;100.00;99873.52;1728265;82;21617;-66
2022/08/12 06:07:49;;;;;;;9.68;6.12;;;;;;;23.24;100.00;99888.27;1708848;84;21045;-67
2022/08/12 06:10:16;;;;;;;9.13;6.25;;;;;;;23.33;100.00;99878.99;1680461;84;21066;-66
2022/08/12 06:12:48;;;;;;;10.88;7.08;;;;;;;23.33;100.00;99878.99;1677469;85;21054;-67
2022/08/12 06:15:11;;;;;;;8.18;6.28;;;;;;;23.38;100.00;99874.59;1676994;85;21058;-67
2022/08/12 06:17:38;;;;;;;11.20;6.50;;;;;;;23.59;100.00;99887.72;1677586;85;21514;-66
2022/08/12 06:20:05;;;;;;;7.58;6.35;;;;;;;23.75;100.00;99881.02;1677647;84;21026;-67
2022/08/12 06:22:33;;;;;;;9.35;7.00;;;;;;;23.92;100.00;99872.92;1677555;85;21014;-67
2022/08/12 06:25:00;;;;;;;9.43;6.28;;;;;;;23.92;100.00;99879.87;1677598;85;21014;-66
2022/08/12 06:27:26;;;;;;;8.20;6.50;;;;;;;23.89;100.00;99890.32;1677029;84;21044;-66
2022/08/12 06:29:53;;;;;;;7.53;6.33;;;;;;;23.98;100.00;99883.22;1678343;84;21113;-66
2022/08/12 06:32:19;;;;;;;9.20;6.70;;;;;;;24.01;100.00;99878.33;1677797;85;21014;-68
2022/08/12 06:34:46;;;;;;;12.95;6.47;;;;;;;23.96;100.00;99884.95;1677553;85;21133;-67
2022/08/12 06:37:12;;;;;;;7.03;6.30;;;;;;;24.01;100.00;99889.45;1650162;85;21104;-67
2022/08/12 06:39:39;;;;;;;10.78;6.40;;;;;;;24.03;100.00;99893.48;1676419;84;21110;-67
2022/08/12 06:44:50;;;;;;;9.83;7.30;;;;;;;23.98;100.00;99887.39;1697590;83;21021;-66
2022/08/12 06:47:18;;;;;;;9.50;6.65;;;;;;;23.95;100.00;99883.33;1698922;83;21492;-67
2022/08/12 06:49:44;;;;;;;8.73;6.72;;;;;;;23.97;100.00;99876.84;1699043;84;21046;-67
2022/08/12 06:52:10;;;;;;;9.50;7.05;;;;;;;23.99;100.00;99867.55;1677834;85;21073;-66
2022/08/12 06:54:37;;;;;;;8.85;7.03;;;;;;;24.01;100.00;99872.77;1699134;84;21644;-66
2022/08/12 06:57:04;;;;;;;9.30;7.40;;;;;;;;;;1676061;84;21656;-66
2022/08/12 06:59:31;;;;;;;9.10;8.15;;;;;;;24.08;100.00;99870.98;1675964;85;21022;-66
2022/08/12 07:01:57;;;;;;;9.63;6.90;;;;;;;23.98;100.00;99860.97;1697719;83;21633;-67
2022/08/12 07:04:24;;;;;;;7.55;6.80;;;;;;;23.93;100.00;99863.42;1701564;82;21062;-66
2022/08/12 07:06:50;;;;;;;8.00;7.20;;;;;;;23.93;100.00;99868.98;1711905;81;21046;-68
2022/08/12 07:09:17;;;;;;;9.48;7.12;;;;;;;23.97;100.00;99862.13;1696535;84;21049;-67
2022/08/12 07:11:43;;;;;;;10.78;6.37;;;;;;;24.04;100.00;99877.61;1696233;83;21066;-67
2022/08/12 07:14:09;;;;;;;7.87;7.03;;;;;;;24.14;100.00;99886.25;1696318;84;21026;-67
2022/08/12 07:16:51;;;;;;;9.75;7.45;;;;;;;24.18;100.00;99884.38;1716594;82;21102;-66
2022/08/12 07:19:18;;;;;;;10.43;6.80;;;;;;;24.15;100.00;99872.58;1743779;82;21369;-64
2022/08/12 07:21:46;;;;;;;9.50;7.33;;;;;;;24.13;100.00;99867.94;1743477;81;21548;-65
2022/08/12 07:24:13;;;;;;;9.28;7.70;;;;;;;24.10;100.00;99866.43;1743856;82;21058;-65
2022/08/12 07:26:40;;;;;;;11.08;7.95;;;;;;;23.96;100.00;99859.92;1735897;81;21099;-64
2022/08/12 07:29:13;;;;;;;12.40;7.75;;;;;;;23.91;100.00;99856.04;1740436;82;21031;-64
2022/08/12 07:31:36;;;;;;;8.58;6.95;;;;;;;23.92;100.00;99862.38;1739308;81;21023;-65
2022/08/12 07:34:04;;;;;;;8.75;7.10;;;;;;;23.96;100.00;99857.73;1740407;82;21066;-67
2022/08/12 07:36:35;;;;;;;8.68;7.28;;;;;;;23.89;100.00;99854.76;1740036;81;21604;-68
2022/08/12 07:39:01;;;;;;;9.98;7.25;;;;;;;23.80;100.00;99857.73;1743073;82;21546;-68
2022/08/12 07:41:30;;;;;;;8.95;7.17;;;;;;;23.78;100.00;99866.41;1743918;81;21125;-68
2022/08/12 07:44:00;;;;;;;9.43;7.20;;;;;;;23.73;100.00;99864.48;1742551;82;21082;-68
2022/08/12 07:46:30;;;;;;;8.40;7.22;;;;;;;23.64;100.00;99863.83;1741005;81;21519;-67
2022/08/12 07:49:00;;;;;;;8.63;7.22;;;;;;;23.61;100.00;99851.45;1741077;82;20995;-67
2022/08/12 07:51:26;;;;;;;9.80;7.83;;;;;;;23.63;100.00;99851.11;1740930;81;21039;-66
2022/08/12 07:53:54;;;;;;;10.00;7.25;;;;;;;23.57;100.00;99851.13;1740719;82;20964;-67
2022/08/12 07:56:20;;;;;;;9.75;7.62;;;;;;;23.60;100.00;99852.61;1713512;82;21071;-68
2022/08/12 07:58:47;;;;;;;10.05;7.47;;;;;;;23.75;100.00;99857.98;1708855;84;21022;-64
2022/08/12 08:01:18;;;;;;;10.38;8.23;;;;;;;23.83;100.00;99847.86;1708780;83;21088;-65
2022/08/12 08:06:39;;;;;;;12.93;8.45;;;;;;;23.89;100.00;99843.06;1700377;83;21156;-65
2022/08/12 08:09:04;;;;;;;9.88;7.70;;;;;;;24.01;100.00;99845.77;1745795;82;21067;-64
2022/08/12 08:14:17;;;;;;;10.25;8.48;;;;;;;24.12;100.00;99834.34;1745813;81;21070;-71
2022/08/12 08:16:45;;;;;;;9.08;8.18;;;;;;;24.18;100.00;99821.80;1745275;81;21421;-67
2022/08/12 08:19:18;;;;;;;10.50;7.40;;;;;;;24.20;100.00;99825.01;1730220;82;21075;-68
2022/08/12 08:21:41;;;;;;;8.38;7.42;;;;;;;24.38;100.00;99821.84;1741862;81;21060;-68
2022/08/12 08:24:13;;;;;;;8.98;7.80;;;;;;;24.44;100.00;99823.20;1730966;81;21037;-68
2022/08/12 08:26:46;;;;;;;9.40;7.87;;;;;;;24.48;100.00;99836.62;1725197;82;21104;-67
2022/08/12 08:29:15;;;;;;;10.00;7.92;;;;;;;24.60;100.00;99826.74;1687843;84;21075;-67
2022/08/12 08:31:44;;;;;;;10.45;8.08;;;;;;;24.55;100.00;99838.17;1726386;82;21114;-67
2022/08/12 08:34:13;;;;;;;11.15;7.58;;;;;;;24.57;100.00;99835.82;1733966;81;20967;-65
2022/08/12 08:36:40;;;;;;;9.50;7.87;;;;;;;24.68;100.00;99832.70;1724893;82;21522;-68
2022/08/12 08:39:07;;;;;;;9.73;8.40;;;;;;;24.74;100.00;99845.16;1678449;84;20982;-67
2022/08/12 08:44:19;;;;;;;10.82;7.97;;;;;;;24.92;100.00;99836.64;1740772;82;21050;-69
2022/08/12 08:46:48;;;;;;;10.32;8.00;;;;;;;25.00;100.00;99832.84;1719689;82;21040;-68
2022/08/12 08:49:16;;;;;;;11.30;8.65;;;;;;;25.03;100.00;99837.69;1738687;82;21012;-68
2022/08/12 08:51:46;;;;;;;13.32;8.15;;;;;;;24.97;100.00;99830.80;1736424;81;21094;-69
2022/08/12 08:54:13;;;;;;;11.12;8.03;;;;;;;24.86;100.00;99842.29;1760941;81;20979;-68
2022/08/12 08:56:43;;;;;;;10.05;8.60;;;;;;;24.83;100.00;99836.06;1761778;80;21560;-70
2022/08/12 08:59:11;;;;;;;12.80;8.53;;;;;;;24.76;100.00;99833.87;1762246;81;21053;-70
2022/08/12 09:01:38;;;;;;;12.68;8.70;;;;;;;24.81;100.00;99838.36;1726708;80;21062;-68
2022/08/12 09:04:06;;;;;;;9.88;8.20;;;;;;;24.88;100.00;99830.77;1703475;84;21009;-70
2022/08/12 09:06:33;;;;;;;9.58;8.68;;;;;;;24.87;100.00;99830.57;1737382;81;21593;-69
2022/08/12 09:09:02;;;;;;;8.70;7.80;;;;;;;24.87;100.00;99822.22;1741534;82;21058;-69
2022/08/12 09:18:33;;;;;;;10.10;8.10;;;;;;;25.12;100.00;99813.19;1801141;79;22557;-66
2022/08/12 09:20:59;;;;;;;9.55;8.15;;;;;;;25.06;100.00;99818.84;1741789;80;21054;-69
2022/08/12 09:23:26;;;;;;;10.35;8.48;;;;;;;25.11;100.00;99828.31;1724629;83;21112;-70
2022/08/12 09:25:53;;;;;;;11.88;8.20;;;;;;;25.30;100.00;99833.63;1724642;82;21094;-69
2022/08/12 09:28:25;;;;;;;11.88;9.03;;;;;;;25.50;100.00;99833.86;1724799;83;21058;-68
2022/08/12 09:30:53;;;;;;;10.23;9.13;;;;;;;25.50;100.00;99839.43;1724301;80;21070;-70
2022/08/12 09:33:20;;;;;;;11.57;8.98;;;;;;;25.52;100.00;99835.13;1724961;82;21085;-69
2022/08/12 09:35:46;;;;;;;11.22;9.00;;;;;;;25.58;100.00;99828.64;1724898;82;21117;-70
2022/08/12 09:38:16;;;;;;;9.48;8.25;;;;;;;25.62;100.00;99828.94;1724821;83;21042;-69
2022/08/12 09:40:42;;;;;;;9.90;8.15;;;;;;;25.73;100.00;99838.30;1715917;82;21046;-68
2022/08/12 09:45:53;;;;;;;10.65;9.03;;;;;;;25.93;100.00;99846.63;1715870;82;21580;-69
2022/08/12 09:48:20;;;;;;;11.00;8.85;;;;;;;26.04;100.00;99848.41;1716309;83;21061;-69
2022/08/12 09:50:49;;;;;;;12.50;9.30;;;;;;;26.04;100.00;99847.63;1724754;82;21066;-68
2022/08/12 09:53:22;;;;;;;15.13;9.18;;;;;;;26.02;100.00;99848.58;1724926;83;21066;-69
2022/08/12 09:55:47;;;;;;;10.63;8.75;;;;;;;26.09;100.00;99860.66;1724421;82;21632;-69
2022/08/12 09:58:17;;;;;;;11.63;9.18;;;;;;;26.18;100.00;99859.84;1727965;82;21030;-69
2022/08/12 10:00:45;;;;;;;10.50;9.25;;;;;;;26.16;100.00;99848.81;1730672;83;21063;-69
2022/08/12 10:03:14;;;;;;;10.88;8.73;;;;;;;26.12;100.00;99847.36;1730885;83;21027;-68
2022/08/12 10:05:43;;;;;;;11.90;8.40;;;;;;;26.14;100.00;99851.19;1730884;82;21098;-68
2022/08/12 10:08:12;;;;;;;11.33;9.20;;;;;;;26.25;100.00;99848.02;1731676;82;21023;-71
2022/08/12 10:13:43;;;;;;;12.37;8.60;;;;;;;26.25;100.00;99853.60;1730813;83;21038;-68
2022/08/12 10:16:21;;;;;;;9.90;8.88;;;;;;;26.26;100.00;99858.56;1730967;81;21058;-69
2022/08/12 10:19:00;;;;;;;10.40;8.25;;;;;;;26.37;100.00;99858.16;1731172;82;21545;-68
2022/08/12 10:21:37;;;;;;;10.08;8.95;;;;;;;26.42;100.00;99858.66;1690866;83;21039;-69
2022/08/12 10:24:10;;;;;;;10.20;8.90;;;;;;;26.39;100.00;99852.44;1680131;84;20982;-69
2022/08/12 10:29:38;;;;;;;11.03;8.60;;;;;;;26.33;100.00;99862.87;1670938;84;21047;-69
2022/08/12 10:32:15;;;;;;;10.60;9.08;;;;;;;26.25;100.00;99868.95;1671078;85;21431;-70
2022/08/12 10:34:39;;;;;;;10.30;9.00;;;;;;;26.26;100.00;99863.56;1651869;85;21538;-69
2022/08/12 10:37:06;;;;;;;12.58;8.65;;;;;;;26.20;100.00;99860.29;1657343;84;21593;-69
2022/08/12 10:39:36;;;;;;;12.30;8.85;;;;;;;26.05;100.00;99841.66;1660336;85;21003;-70
2022/08/12 10:44:51;;;;;;;10.53;8.83;;;;;;;25.96;100.00;99852.86;1665499;85;21625;-69
2022/08/12 10:47:20;;;;;;;9.53;8.60;;;;;;;25.77;100.00;99850.92;1665183;85;21573;-68
2022/08/12 10:49:46;;;;;;;11.65;9.25;;;;;;;25.64;100.00;99865.63;1671354;85;21483;-69
2022/08/12 10:52:13;;;;;;;12.35;9.75;;;;;;;25.57;100.00;99868.28;1665746;85;21023;-70
2022/08/12 10:54:41;;;;;;;11.73;9.30;;;;;;;25.41;100.00;99882.03;1666896;85;20999;-68
2022/08/12 10:57:08;;;;;;;10.75;8.58;;;;;;;25.21;100.00;99887.62;1666361;85;21577;-69
2022/08/12 10:59:34;;;;;;;11.78;9.18;;;;;;;25.10;100.00;99889.94;1661406;85;20976;-68
2022/08/12 11:02:02;;;;;;;13.65;9.73;;;;;;;25.03;100.00;99891.18;1664957;85;21058;-68
2022/08/12 11:04:29;;;;;;;14.35;9.98;;;;;;;24.99;100.00;99894.47;1665324;85;20981;-67
2022/08/12 11:06:57;;;;;;;10.05;9.08;;;;;;;24.94;100.00;99889.98;1668404;84;21226;-68
2022/08/12 11:09:33;;;;;;;13.43;9.70;;;;;;;24.95;100.00;99887.42;1653577;85;21038;-68
2022/08/12 11:11:58;;;;;;;10.65;9.55;;;;;;;24.97;100.00;99889.86;1660761;85;21067;-67
2022/08/12 11:14:30;;;;;;;12.98;9.63;;;;;;;24.95;100.00;99892.99;1665198;85;21543;-70
2022/08/12 11:16:59;;;;;;;13.53;9.73;;;;;;;24.93;100.00;99891.17;1656954;85;21089;-69
2022/08/12 11:19:27;;;;;;;12.30;9.73;;;;;;;24.96;100.00;99885.45;1699871;83;21039;-68
2022/08/12 11:21:54;;;;;;;11.12;10.03;;;;;;;25.02;100.00;99883.98;1650026;87;21443;-69
2022/08/12 11:24:22;;;;;;;14.95;10.70;;;;;;;25.04;100.00;99885.26;1683343;85;21019;-70
2022/08/12 11:26:51;;;;;;;11.15;9.98;;;;;;;25.05;100.00;99881.86;1711891;82;21118;-70
2022/08/12 11:29:23;;;;;;;14.10;9.18;;;;;;;25.11;100.00;99884.60;1711346;83;21476;-69
2022/08/12 11:31:49;;;;;;;17.30;9.88;;;;;;;25.18;100.00;99883.36;1711547;82;21609;-68
2022/08/12 11:34:16;;;;;;;11.57;10.38;;;;;;;25.16;100.00;99875.36;1713961;82;21075;-68
2022/08/12 11:36:51;;;;;;;13.58;9.95;;;;;;;25.15;100.00;99868.78;1717462;82;21628;-69
2022/08/12 11:39:18;;;;;;;12.20;10.15;;;;;;;25.20;100.00;99865.09;1682702;85;22020;-70
2022/08/12 11:41:44;;;;;;;12.73;9.90;;;;;;;25.27;100.00;99853.29;1717465;82;21522;-69
2022/08/12 11:44:11;;;;;;;15.43;10.20;;;;;;;25.25;100.00;99836.96;1682895;84;21046;-69
2022/08/12 11:46:38;;;;;;;10.72;9.55;;;;;;;25.22;100.00;99834.88;1711609;82;21669;-69
2022/08/12 11:49:04;;;;;;;12.37;9.50;;;;;;;25.17;100.00;99840.77;1709045;83;21375;-69
2022/08/12 11:51:31;;;;;;;11.75;9.68;;;;;;;25.15;100.00;99845.88;1710433;82;21038;-68
2022/08/12 11:53:57;;;;;;;10.85;9.75;;;;;;;25.12;100.00;99851.38;1694127;82;21074;-68
2022/08/12 11:56:24;;;;;;;10.18;9.18;;;;;;;25.11;100.00;99865.91;1682430;84;21102;-67
2022/08/12 11:58:50;;;;;;;12.05;9.68;;;;;;;25.12;100.00;99867.51;1682183;85;21105;-69
2022/08/12 12:01:17;;;;;;;14.90;10.00;;;;;;;25.11;100.00;99860.34;1682078;84;21050;-69
2022/08/12 12:03:43;;;;;;;14.28;9.95;;;;;;;25.08;100.00;99874.20;1682252;85;21042;-68
2022/08/12 12:06:10;;;;;;;15.13;9.68;;;;;;;25.06;100.00;99869.56;1682735;84;21035;-69
2022/08/12 12:08:37;;;;;;;10.80;9.60;;;;;;;25.06;100.00;99863.41;1682423;85;21528;-68
2022/08/12 12:11:03;;;;;;;14.38;10.13;;;;;;;25.04;100.00;99865.77;1682387;84;21644;-69
2022/08/12 12:13:37;;;;;;;11.85;9.73;;;;;;;24.98;100.00;99855.25;1682428;85;21078;-70
2022/08/12 12:16:05;;;;;;;10.85;9.08;;;;;;;24.93;100.00;99860.55;1681999;84;21130;-69
2022/08/12 12:18:32;;;;;;;11.97;10.28;;;;;;;24.91;100.00;99869.02;1687212;85;21026;-67
2022/08/12 12:21:05;;;;;;;13.68;10.40;;;;;;;24.87;100.00;99869.55;1690065;83;21722;-69
2022/08/12 12:23:33;;;;;;;12.43;10.15;;;;;;;24.83;100.00;99876.98;1689979;85;21006;-69
2022/08/12 12:26:05;;;;;;;11.12;9.78;;;;;;;24.86;100.00;99877.09;1690218;83;21472;-69
2022/08/12 12:28:37;;;;;;;10.88;9.58;;;;;;;24.83;100.00;99869.47;1690113;85;21042;-68
2022/08/12 12:31:03;;;;;;;12.18;9.73;;;;;;;24.77;100.00;99873.66;1690264;83;21046;-69
2022/08/12 12:33:30;;;;;;;14.50;9.48;;;;;;;24.81;100.00;99887.08;1712251;82;21026;-68
2022/08/12 12:35:57;;;;;;;13.65;9.75;;;;;;;24.80;100.00;99883.28;1718994;82;21070;-69
2022/08/12 12:38:23;;;;;;;11.15;9.90;;;;;;;24.78;100.00;99883.05;1718874;83;21050;-70
2022/08/12 12:40:50;;;;;;;11.48;9.98;;;;;;;24.82;100.00;99880.34;1718491;82;21111;-69
2022/08/12 12:43:16;;;;;;;11.03;9.80;;;;;;;24.80;100.00;99873.53;1718567;83;21621;-69
2022/08/12 12:45:43;;;;;;;14.13;10.30;;;;;;;24.82;100.00;99879.53;1718778;82;21628;-67
2022/08/12 12:48:24;;;;;;;13.28;9.63;;;;;;;24.87;100.00;99875.90;1668890;86;21074;-68
2022/08/12 12:53:40;;;;;;;;;;;;;;;24.88;100.00;99876.12;1641205;87;21029;-69
2022/08/12 12:56:11;;;;;;;14.43;10.00;;;;;;;24.95;100.00;99876.87;1638584;87;20143;-70
2022/08/12 12:58:38;;;;;;;12.45;9.80;;;;;;;24.93;100.00;99873.66;1639009;87;21551;-69
2022/08/12 13:01:05;;;;;;;11.73;9.40;;;;;;;24.96;100.00;99866.77;1660000;85;21154;-68
2022/08/12 13:03:34;;;;;;;12.63;9.25;;;;;;;25.00;100.00;99852.92;1665813;86;21020;-68
2022/08/12 13:06:01;;;;;;;11.18;10.08;;;;;;;25.06;100.00;99856.45;1665545;86;21170;-68
2022/08/12 13:08:30;;;;;;;13.55;9.68;;;;;;;25.10;100.00;99860.70;1665863;86;21070;-68
2022/08/12 13:11:00;;;;;;;12.70;9.73;;;;;;;25.13;100.00;99858.56;1664309;85;21062;-69
2022/08/12 13:13:28;;;;;;;14.87;10.32;;;;;;;25.17;100.00;99858.06;1666223;86;21023;-69
2022/08/12 13:15:55;;;;;;;11.80;10.13;;;;;;;25.19;100.00;99857.91;1666069;86;21090;-68
2022/08/12 13:18:22;;;;;;;12.45;10.00;;;;;;;25.21;100.00;99868.11;1648922;85;21479;-69
2022/08/12 13:20:48;;;;;;;11.22;9.70;;;;;;;25.28;100.00;99859.67;1639069;87;21716;-68
2022/08/12 13:23:18;;;;;;;14.25;10.25;;;;;;;25.28;100.00;99865.25;1639048;86;21083;-70
2022/08/12 13:25:44;;;;;;;13.38;10.30;;;;;;;25.33;100.00;99867.14;1638686;86;21126;-69
2022/08/12 13:28:22;;;;;;;13.35;10.72;;;;;;;25.38;100.00;99870.23;1650921;85;21051;-70